Terminal Aerodrome Forecast
Issued by NWS

Home | Current Version | Previous Version | Text Only | Print | Product List | Glossary On
Versions: 1 2 3 4 5 6 7 8 9 10 11 12 13 14 15 16 17 18 19 20 21 22 23 24 25 26 27 28 29 30
000
FTUS43 KDVN 070540
TAFCID
TAF
KCID 070540Z 0706/0806 20011KT P6SM FEW110 BKN200
     FM071800 28016G26KT 6SM HZ BKN040
     FM080200 30017G27KT P6SM VCSH OVC030 PROB30 0802/0806 2SM -SN
      BR OVC020=

USA.gov is the U.S. government's official web portal to all federal, state and local government web resources and services.